Time;durP1;ratioP1;P1;durP2;ratioP2;P2;SDS_P1;SDS_P2;PMS_P1;PMS_P2;Temp;Humidity;BMP_temperature;BMP_pressure;BME280_temperature;BME280_humidity;BME280_pressure;Samples;Min_cycle;Max_cycle;Signal;HPM_P1;HPM_P2
2024/01/18 00:01:37;;;;;;;3.92;3.40;;;17.50;57.30;;;;;;5072248;28;20052;-28
2024/01/18 00:04:04;;;;;;;5.65;3.50;;;18.60;43.80;;;;;;5057809;28;20053;-28
2024/01/18 00:06:32;;;;;;;5.38;3.67;;;19.30;58.40;;;;;;5052509;28;20106;-28
2024/01/18 00:09:00;;;;;;;5.22;3.83;;;17.40;57.70;;;;;;5052200;28;20131;-28
2024/01/18 00:11:27;;;;;;;4.40;3.58;;;19.00;58.30;;;;;;5052431;28;20053;-28
2024/01/18 00:13:54;;;;;;;4.47;3.50;;;17.40;57.30;;;;;;5051922;28;20049;-28
2024/01/18 00:16:21;;;;;;;5.28;3.30;;;17.30;43.20;;;;;;5052470;28;20429;-28
2024/01/18 00:18:48;;;;;;;4.55;3.50;;;18.60;49.10;;;;;;5062209;28;20102;-28
2024/01/18 00:21:15;;;;;;;5.75;3.33;;;;;;;;;;5072312;28;20052;-28
2024/01/18 00:23:42;;;;;;;4.82;3.58;;;19.40;59.20;;;;;;5072017;28;20060;-28
2024/01/18 00:26:10;;;;;;;5.22;3.30;;;18.30;38.90;;;;;;5071896;28;20041;-31
2024/01/18 00:28:37;;;;;;;4.60;3.45;;;;;;;;;;5071876;28;20059;-35
2024/01/18 00:31:05;;;;;;;4.90;3.55;;;;;;;;;;5057108;28;20563;-28
2024/01/18 00:33:32;;;;;;;5.47;3.80;;;;;;;;;;5060091;28;20493;-29
2024/01/18 00:35:58;;;;;;;4.32;3.42;;;18.70;58.60;;;;;;5071237;28;20052;-27
2024/01/18 00:38:26;;;;;;;4.70;3.45;;;;;;;;;;5071827;28;20517;-33
2024/01/18 00:40:53;;;;;;;4.65;3.40;;;;;;;;;;5071633;28;20109;-30
2024/01/18 00:43:21;;;;;;;4.63;3.67;;;18.20;38.90;;;;;;5071773;28;20097;-31
2024/01/18 00:45:48;;;;;;;5.72;3.50;;;;;;;;;;5062700;28;20049;-29
2024/01/18 00:48:15;;;;;;;5.07;3.33;;;17.80;58.20;;;;;;5051576;28;20053;-28
2024/01/18 00:50:42;;;;;;;5.20;3.60;;;;;;;;;;5051421;28;20486;-33
2024/01/18 00:53:09;;;;;;;4.88;3.30;;;18.30;58.90;;;;;;5051722;28;20049;-28
2024/01/18 00:55:36;;;;;;;5.18;3.28;;;18.10;58.90;;;;;;5051717;28;20075;-27
2024/01/18 00:58:02;;;;;;;5.43;3.95;;;18.90;54.20;;;;;;5051326;28;20410;-28
2024/01/18 01:00:31;;;;;;;6.57;3.65;;;18.20;59.00;;;;;;5051666;28;20098;-30
2024/01/18 01:02:58;;;;;;;4.18;3.38;;;17.90;58.60;;;;;;5051625;28;20056;-28
2024/01/18 01:05:26;;;;;;;6.45;3.50;;;;;;;;;;5051520;28;20465;-28
2024/01/18 01:07:53;;;;;;;4.22;3.40;;;18.20;47.50;;;;;;5051571;28;20049;-29
2024/01/18 01:10:19;;;;;;;4.95;3.38;;;17.70;58.80;;;;;;5065935;28;20501;-34
2024/01/18 01:12:47;;;;;;;4.28;3.28;;;;;;;;;;5071743;28;20102;-33
2024/01/18 01:15:13;;;;;;;5.75;3.45;;;17.70;59.00;;;;;;5071583;28;20105;-34
2024/01/18 01:17:42;;;;;;;3.70;2.90;;;17.90;55.50;;;;;;5071538;28;20048;-35
2024/01/18 01:20:10;;;;;;;4.28;3.13;;;17.40;58.60;;;;;;5071273;28;20052;-36
2024/01/18 01:22:37;;;;;;;4.75;3.38;;;;;;;;;;5055202;28;20417;-32
2024/01/18 01:25:05;;;;;;;5.80;3.35;;;17.00;40.90;;;;;;5052225;28;20056;-35
2024/01/18 01:27:32;;;;;;;4.35;3.05;;;17.30;58.90;;;;;;5071617;28;20093;-37
2024/01/18 01:29:59;;;;;;;4.50;3.25;;;;;;;;;;5071196;28;20102;-31
2024/01/18 01:32:26;;;;;;;4.20;3.17;;;18.00;59.60;;;;;;5071474;28;20052;-28
2024/01/18 01:34:54;;;;;;;4.78;3.22;;;17.60;39.40;;;;;;5071386;28;20414;-28
2024/01/18 01:37:21;;;;;;;4.85;2.97;;;17.20;59.20;;;;;;5066651;28;20079;-38
2024/01/18 01:39:48;;;;;;;4.82;3.20;;;17.30;58.40;;;;;;5070816;28;20048;-34
2024/01/18 01:42:14;;;;;;;3.60;2.90;;;18.20;60.20;;;;;;5071049;28;20060;-35
2024/01/18 01:44:42;;;;;;;4.20;3.03;;;;;;;;;;5071272;28;20476;-32
2024/01/18 01:47:08;;;;;;;4.85;3.20;;;17.80;59.80;;;;;;5071163;28;20097;-28
2024/01/18 01:49:36;;;;;;;4.25;2.85;;;17.30;59.70;;;;;;5071036;28;20535;-28
2024/01/18 01:52:04;;;;;;;3.92;3.00;;;17.50;60.30;;;;;;5060242;28;20049;-28
2024/01/18 01:54:32;;;;;;;3.40;2.65;;;16.50;51.40;;;;;;5051281;28;20053;-28
2024/01/18 01:56:59;;;;;;;4.13;2.72;;;17.30;60.10;;;;;;5054172;28;20041;-28
2024/01/18 01:59:26;;;;;;;3.45;2.88;;;;;;;;;;5054703;28;20082;-28
2024/01/18 02:01:53;;;;;;;4.35;2.83;;;17.90;60.70;;;;;;5054912;28;20102;-28
2024/01/18 02:04:20;;;;;;;5.00;3.10;;;;;;;;;;5054707;28;20049;-28
2024/01/18 02:06:47;;;;;;;3.92;2.78;;;17.60;60.00;;;;;;5054603;28;20057;-28
2024/01/18 02:09:15;;;;;;;3.90;2.85;;;17.30;60.20;;;;;;5054422;28;20407;-28
2024/01/18 02:11:42;;;;;;;3.92;2.55;;;;;;;;;;5054744;28;20056;-33
2024/01/18 02:14:09;;;;;;;4.38;2.50;;;17.60;60.70;;;;;;5054679;28;20410;-28
2024/01/18 02:16:36;;;;;;;3.83;2.67;;;17.80;60.30;;;;;;5054413;28;20063;-28
2024/01/18 02:19:03;;;;;;;4.53;2.70;;;18.70;59.30;;;;;;5054236;28;20099;-28
2024/01/18 02:21:31;;;;;;;3.30;2.40;;;;;;;;;;5054667;28;20087;-29
2024/01/18 02:24:00;;;;;;;3.92;2.75;;;17.40;59.90;;;;;;5069196;28;20048;-28
2024/01/18 02:26:29;;;;;;;3.38;2.35;;;17.40;41.10;;;;;;5074353;28;20048;-30
2024/01/18 02:28:56;;;;;;;3.13;2.50;;;17.50;59.90;;;;;;5074167;28;20040;-34
2024/01/18 02:31:23;;;;;;;3.05;2.35;;;17.90;41.80;;;;;;5059037;28;20095;-30
2024/01/18 02:33:50;;;;;;;4.28;2.45;;;17.90;43.20;;;;;;5054211;28;20461;-28
2024/01/18 02:36:17;;;;;;;3.20;2.50;;;;;;;;;;5058993;28;20048;-31
2024/01/18 02:38:45;;;;;;;3.00;2.22;;;17.80;59.90;;;;;;5073573;28;20052;-28
2024/01/18 02:41:11;;;;;;;2.90;2.25;;;18.40;52.00;;;;;;5073754;28;20080;-28
2024/01/18 02:43:40;;;;;;;3.75;2.47;;;18.00;56.40;;;;;;5073947;28;20500;-28
2024/01/18 02:46:06;;;;;;;3.38;2.33;;;17.80;59.40;;;;;;5073867;28;20045;-34
2024/01/18 02:48:33;;;;;;;3.80;2.20;;;;;;;;;;5074075;28;20044;-31
2024/01/18 02:51:01;;;;;;;3.15;2.20;;;;;;;;;;5071792;28;20045;-36
2024/01/18 02:53:28;;;;;;;3.03;2.13;;;;;;;;;;5073485;28;20106;-30
2024/01/18 02:55:55;;;;;;;2.70;2.00;;;;;;;;;;5073756;28;20106;-34
2024/01/18 02:58:22;;;;;;;2.90;1.83;;;;;;;;;;5073742;28;20041;-33
2024/01/18 03:00:50;;;;;;;2.67;1.80;;;18.00;59.40;;;;;;5073241;28;20055;-34
2024/01/18 03:03:19;;;;;;;2.97;2.00;;;18.00;59.10;;;;;;5073822;28;20052;-36
2024/01/18 03:05:45;;;;;;;2.30;1.80;;;18.70;59.40;;;;;;5073515;28;20139;-34
2024/01/18 03:08:13;;;;;;;3.92;1.80;;;;;;;;;;5071239;28;20448;-35
2024/01/18 03:10:39;;;;;;;2.60;1.85;;;19.40;59.60;;;;;;5073225;28;20100;-34
2024/01/18 03:13:07;;;;;;;3.38;1.92;;;;;;;;;;5073531;28;20048;-34
2024/01/18 03:15:34;;;;;;;4.05;1.92;;;18.80;59.10;;;;;;5058667;28;20052;-34
2024/01/18 03:18:02;;;;;;;2.30;1.83;;;19.00;44.50;;;;;;5051777;28;20457;-30
2024/01/18 03:20:28;;;;;;;2.47;1.75;;;18.40;46.00;;;;;;5053241;28;20103;-35
2024/01/18 03:22:55;;;;;;;2.83;1.83;;;18.90;59.40;;;;;;5053358;28;20132;-34
2024/01/18 03:25:22;;;;;;;2.20;1.63;;;18.30;58.80;;;;;;5062131;28;20551;-35
2024/01/18 03:27:49;;;;;;;3.55;1.70;;;18.90;51.30;;;;;;5072996;28;20090;-34
2024/01/18 03:30:16;;;;;;;2.38;1.60;;;17.90;58.80;;;;;;5073133;28;20102;-35
2024/01/18 03:32:43;;;;;;;2.35;1.67;;;;;;;;;;5072853;28;20052;-30
2024/01/18 03:35:11;;;;;;;2.25;1.60;;;18.40;58.70;;;;;;5073082;28;20053;-37
2024/01/18 03:37:38;;;;;;;3.47;1.95;;;18.60;59.10;;;;;;5072257;28;20452;-36
2024/01/18 03:40:08;;;;;;;2.50;1.60;;;18.70;38.90;;;;;;5069446;28;20056;-36
2024/01/18 03:42:35;;;;;;;2.78;1.85;;;;;;;;;;5052857;28;20690;-35
2024/01/18 03:45:02;;;;;;;3.65;1.80;;;18.40;58.60;;;;;;5052778;28;20077;-37
2024/01/18 03:47:29;;;;;;;2.30;1.55;;;19.00;59.00;;;;;;5052946;28;20114;-35
2024/01/18 03:49:55;;;;;;;2.55;1.75;;;18.30;52.50;;;;;;5052526;28;20053;-33
2024/01/18 03:52:24;;;;;;;2.50;1.52;;;18.30;58.70;;;;;;5052829;28;20457;-37
2024/01/18 03:54:50;;;;;;;2.15;1.55;;;18.50;46.20;;;;;;5052303;28;20080;-28
2024/01/18 03:57:18;;;;;;;2.45;1.60;;;;;;;;;;5052825;28;20469;-32
2024/01/18 03:59:46;;;;;;;2.50;1.58;;;18.10;58.80;;;;;;5052364;28;20040;-28
2024/01/18 04:02:13;;;;;;;2.53;1.75;;;18.80;59.10;;;;;;5052764;28;20052;-28
2024/01/18 04:04:40;;;;;;;2.03;1.50;;;;;;;;;;5052559;28;20073;-31
2024/01/18 04:07:07;;;;;;;2.97;1.80;;;18.70;59.10;;;;;;5052196;28;20479;-27
2024/01/18 04:09:36;;;;;;;2.45;1.60;;;19.00;48.20;;;;;;5052170;28;20179;-29
2024/01/18 04:12:03;;;;;;;2.85;1.80;;;18.50;58.90;;;;;;5052503;28;20056;-27
2024/01/18 04:14:30;;;;;;;1.88;1.40;;;;;;;;;;5052476;28;20099;-28
2024/01/18 04:16:57;;;;;;;2.47;1.50;;;18.90;59.20;;;;;;5052190;28;20048;-28
2024/01/18 04:19:23;;;;;;;3.08;1.60;;;18.90;49.60;;;;;;5051000;28;20099;-27
2024/01/18 04:21:51;;;;;;;2.55;1.65;;;;;;;;;;5052126;28;20057;-29
2024/01/18 04:24:17;;;;;;;1.60;1.40;;;18.80;58.70;;;;;;5052429;28;20057;-28
2024/01/18 04:26:45;;;;;;;2.28;1.45;;;18.80;38.80;;;;;;5066570;28;20501;-33
2024/01/18 04:29:13;;;;;;;2.60;1.58;;;;;;;;;;5071972;28;20071;-32
2024/01/18 04:31:40;;;;;;;2.00;1.65;;;19.40;41.20;;;;;;5071843;28;20083;-28
2024/01/18 04:34:07;;;;;;;2.33;1.50;;;;;;;;;;5071787;28;20489;-33
2024/01/18 04:36:33;;;;;;;1.67;1.40;;;18.90;58.70;;;;;;5062275;28;20094;-35
2024/01/18 04:39:00;;;;;;;2.00;1.48;;;19.20;58.90;;;;;;5071671;28;20714;-35
2024/01/18 04:41:27;;;;;;;1.92;1.40;;;17.70;48.90;;;;;;5071845;28;20102;-36
2024/01/18 04:43:55;;;;;;;1.80;1.40;;;19.30;59.30;;;;;;5071975;28;20109;-36
2024/01/18 04:46:23;;;;;;;2.72;1.50;;;;;;;;;;5056663;28;20484;-33
2024/01/18 04:48:50;;;;;;;2.00;1.40;;;18.80;53.30;;;;;;5051736;28;20077;-35
2024/01/18 04:51:16;;;;;;;2.13;1.40;;;19.00;58.80;;;;;;5051618;28;20053;-35
2024/01/18 04:53:43;;;;;;;2.22;1.55;;;19.10;40.50;;;;;;5051592;28;20056;-33
2024/01/18 04:56:10;;;;;;;2.33;1.45;;;19.30;59.30;;;;;;5051784;28;20410;-28
2024/01/18 04:58:37;;;;;;;2.42;1.50;;;;;;;;;;5051696;28;20095;-31
2024/01/18 05:01:06;;;;;;;2.05;1.30;;;18.30;58.20;;;;;;5051302;28;20461;-28
2024/01/18 05:03:32;;;;;;;2.20;1.33;;;18.50;58.30;;;;;;5051546;28;20052;-28
2024/01/18 05:05:59;;;;;;;2.60;1.30;;;19.00;59.00;;;;;;5051717;28;20081;-37
2024/01/18 05:08:26;;;;;;;1.90;1.20;;;19.50;46.10;;;;;;5051498;28;20060;-37
2024/01/18 05:10:53;;;;;;;2.15;1.30;;;19.20;59.00;;;;;;5051363;28;20572;-35
2024/01/18 05:13:21;;;;;;;1.98;1.10;;;18.60;55.30;;;;;;5051394;28;20087;-38
2024/01/18 05:15:48;;;;;;;2.10;1.13;;;;;;;;;;5051549;28;20085;-34
2024/01/18 05:18:16;;;;;;;1.90;1.10;;;20.00;59.60;;;;;;5051486;28;20049;-33
2024/01/18 05:20:43;;;;;;;1.35;1.23;;;19.60;59.30;;;;;;5051509;28;20476;-38
2024/01/18 05:23:09;;;;;;;2.10;1.20;;;18.10;58.10;;;;;;5070655;28;20102;-34
2024/01/18 05:25:37;;;;;;;1.92;1.27;;;;;;;;;;5071275;28;20102;-35
2024/01/18 05:28:04;;;;;;;1.75;1.30;;;18.10;58.40;;;;;;5070618;28;20045;-36
2024/01/18 05:30:31;;;;;;;1.77;1.20;;;19.10;57.80;;;;;;5072154;28;20090;-36
2024/01/18 05:32:58;;;;;;;1.70;1.15;;;;;;;;;;5075247;28;20129;-36
2024/01/18 05:35:26;;;;;;;1.40;1.13;;;18.90;38.60;;;;;;5075576;28;20056;-34
2024/01/18 05:37:53;;;;;;;1.83;1.13;;;19.10;45.10;;;;;;5074736;28;20048;-29
2024/01/18 05:40:22;;;;;;;1.55;1.20;;;18.10;58.00;;;;;;5074959;28;20052;-28
2024/01/18 05:42:49;;;;;;;1.65;1.10;;;19.40;57.40;;;;;;5065370;28;20053;-35
2024/01/18 05:45:16;;;;;;;1.13;1.00;;;17.80;58.20;;;;;;5055049;28;20464;-38
2024/01/18 05:47:43;;;;;;;1.48;1.02;;;;;;;;;;5055262;28;20052;-28
2024/01/18 05:50:10;;;;;;;1.55;1.10;;;19.30;58.70;;;;;;5054980;28;20049;-28
2024/01/18 05:52:39;;;;;;;1.15;1.00;;;18.20;57.80;;;;;;5054798;28;20048;-28
2024/01/18 05:55:06;;;;;;;1.73;1.00;;;18.90;38.50;;;;;;5054907;28;20552;-28
2024/01/18 05:57:33;;;;;;;2.00;1.10;;;;;;;;;;5054939;28;20049;-32
2024/01/18 06:00:00;;;;;;;2.40;1.23;;;18.80;50.70;;;;;;5054840;28;20108;-34
2024/01/18 06:02:27;;;;;;;1.05;0.90;;;;;;;;;;5054909;28;20127;-32
2024/01/18 06:04:54;;;;;;;1.40;1.00;;;20.00;59.10;;;;;;5054735;28;20090;-38
2024/01/18 06:07:22;;;;;;;1.70;1.05;;;18.70;58.20;;;;;;5054717;28;20083;-28
2024/01/18 06:09:50;;;;;;;1.38;1.00;;;18.80;58.70;;;;;;5054569;28;20087;-28
2024/01/18 06:12:17;;;;;;;1.95;1.10;;;19.10;58.60;;;;;;5055692;28;20049;-28
2024/01/18 06:14:44;;;;;;;1.30;1.00;;;19.70;54.80;;;;;;5054322;28;20048;-28
2024/01/18 06:17:11;;;;;;;1.85;0.95;;;19.30;59.10;;;;;;5054496;28;20049;-29
2024/01/18 06:19:38;;;;;;;1.67;1.15;;;;;;;;;;5054381;28;20091;-32
2024/01/18 06:22:05;;;;;;;1.85;1.05;;;;;;;;;;5060300;28;20098;-33
2024/01/18 06:24:32;;;;;;;2.58;1.13;;;;;;;;;;5074240;28;20048;-31
2024/01/18 06:27:01;;;;;;;1.90;1.10;;;19.20;58.60;;;;;;5069789;28;20076;-37
2024/01/18 06:29:30;;;;;;;1.42;0.98;;;;;;;;;;5054215;28;20072;-31
2024/01/18 06:31:57;;;;;;;1.58;1.20;;;18.30;57.80;;;;;;5054494;28;20048;-34
2024/01/18 06:34:24;;;;;;;1.45;1.00;;;;;;;;;;5054182;28;20045;-37
2024/01/18 06:36:52;;;;;;;1.65;0.90;;;18.30;46.50;;;;;;5061556;28;20101;-37
2024/01/18 06:39:19;;;;;;;1.40;1.08;;;19.90;58.90;;;;;;5072813;28;20040;-33
2024/01/18 06:41:46;;;;;;;2.83;1.08;;;18.70;58.20;;;;;;5065250;28;20052;-35
2024/01/18 06:44:14;;;;;;;1.58;1.00;;;20.10;47.20;;;;;;5054058;28;20136;-36
2024/01/18 06:46:41;;;;;;;1.70;0.95;;;19.80;52.80;;;;;;5053986;28;20049;-35
2024/01/18 06:49:08;;;;;;;1.20;1.00;;;19.10;58.90;;;;;;5054091;28;20052;-28
2024/01/18 06:51:35;;;;;;;3.65;1.10;;;19.20;47.50;;;;;;5055754;28;20045;-29
2024/01/18 06:54:02;;;;;;;3.50;1.10;;;18.80;46.90;;;;;;5072831;28;20464;-35
2024/01/18 06:56:29;;;;;;;1.63;0.95;;;19.10;58.10;;;;;;5053898;28;20083;-35
2024/01/18 06:58:56;;;;;;;1.50;0.98;;;19.10;58.80;;;;;;5053794;28;20476;-28
2024/01/18 07:01:24;;;;;;;3.05;1.23;;;19.00;38.50;;;;;;5053641;28;20119;-33
2024/01/18 07:03:51;;;;;;;1.10;0.85;;;;;;;;;;5053758;28;20095;-33
2024/01/18 07:06:18;;;;;;;2.08;1.13;;;;;;;;;;5053553;28;20086;-28
2024/01/18 07:08:45;;;;;;;1.67;1.00;;;;;;;;;;5053511;28;20049;-32
2024/01/18 07:11:12;;;;;;;1.65;1.17;;;19.40;59.00;;;;;;5053372;28;20414;-28
2024/01/18 07:13:39;;;;;;;1.67;1.00;;;;;;;;;;5053437;28;20044;-32
2024/01/18 07:16:08;;;;;;;1.75;1.00;;;19.70;58.70;;;;;;5060812;28;20560;-27
2024/01/18 07:18:36;;;;;;;1.42;0.80;;;18.60;38.40;;;;;;5063425;28;20498;-29
2024/01/18 07:21:03;;;;;;;1.17;1.00;;;18.90;58.60;;;;;;5062610;28;20047;-28
2024/01/18 07:23:30;;;;;;;1.23;0.90;;;19.90;42.30;;;;;;5063651;28;20063;-31
2024/01/18 07:25:57;;;;;;;0.80;0.73;;;;;;;;;;5062931;28;20558;-30
2024/01/18 07:28:24;;;;;;;1.30;0.80;;;19.90;47.00;;;;;;5062935;28;20079;-30
2024/01/18 07:30:51;;;;;;;0.95;0.93;;;;;;;;;;5060328;28;20049;-27
2024/01/18 07:33:18;;;;;;;1.15;0.98;;;;;;;;;;5062178;28;20056;-31
2024/01/18 07:35:46;;;;;;;1.38;0.82;;;19.00;58.10;;;;;;5068705;28;20049;-28
2024/01/18 07:38:14;;;;;;;1.00;0.88;;;18.90;58.10;;;;;;5072564;28;20475;-28
2024/01/18 07:40:40;;;;;;;1.77;0.93;;;19.00;56.10;;;;;;5072643;28;20079;-29
2024/01/18 07:43:07;;;;;;;1.15;0.90;;;19.60;58.90;;;;;;5073217;28;20048;-28
2024/01/18 07:45:35;;;;;;;0.70;0.70;;;;;;;;;;5072847;28;20072;-31
2024/01/18 07:48:01;;;;;;;2.10;0.77;;;19.60;51.80;;;;;;5072638;28;20102;-28
2024/01/18 07:50:29;;;;;;;2.15;0.93;;;;;;;;;;5070741;28;20061;-30
2024/01/18 07:52:57;;;;;;;1.80;1.15;;;19.00;58.40;;;;;;5052860;28;20103;-28
2024/01/18 07:55:24;;;;;;;7.07;1.15;;;20.30;59.20;;;;;;5052909;28;20548;-35
2024/01/18 07:57:51;;;;;;;2.35;0.80;;;19.50;58.60;;;;;;5052555;28;20052;-37
2024/01/18 08:00:18;;;;;;;5.22;0.90;;;19.70;58.40;;;;;;5052655;28;20171;-37
2024/01/18 08:02:45;;;;;;;3.03;0.90;;;19.50;58.40;;;;;;5053195;28;20457;-33
2024/01/18 08:05:13;;;;;;;3.03;0.82;;;19.40;58.30;;;;;;5072584;28;20090;-38
2024/01/18 08:07:40;;;;;;;3.85;1.02;;;19.40;57.80;;;;;;5072574;28;20551;-36
2024/01/18 08:10:09;;;;;;;1.95;0.80;;;20.60;58.50;;;;;;5072413;28;20049;-37
2024/01/18 08:12:36;;;;;;;0.73;0.60;;;19.60;58.10;;;;;;5072558;28;20087;-34
2024/01/18 08:15:04;;;;;;;1.00;0.75;;;19.70;38.40;;;;;;5072086;28;20056;-32
2024/01/18 08:17:31;;;;;;;1.15;0.90;;;19.60;57.70;;;;;;5064668;28;20048;-38
2024/01/18 08:19:58;;;;;;;2.20;0.90;;;;;;;;;;5057484;28;20098;-35
2024/01/18 08:22:24;;;;;;;1.10;0.80;;;19.90;58.20;;;;;;5052393;28;20501;-35
2024/01/18 08:24:52;;;;;;;0.75;0.73;;;;;;;;;;5052005;28;20102;-33
2024/01/18 08:27:20;;;;;;;1.00;0.70;;;19.80;38.20;;;;;;5071975;28;20053;-36
2024/01/18 08:29:47;;;;;;;1.17;0.65;;;21.00;42.50;;;;;;5071395;28;20110;-35
2024/01/18 08:32:14;;;;;;;1.08;0.70;;;;;;;;;;5066152;28;20053;-33
2024/01/18 08:34:41;;;;;;;0.93;0.80;;;;;;;;;;5062750;28;20083;-36
2024/01/18 08:37:08;;;;;;;1.33;0.90;;;19.80;47.70;;;;;;5070822;28;20602;-33
2024/01/18 08:39:35;;;;;;;1.15;0.88;;;18.80;56.80;;;;;;5067235;28;20089;-37
2024/01/18 08:42:02;;;;;;;1.40;0.82;;;;;;;;;;5061580;28;20114;-37
2024/01/18 08:44:30;;;;;;;1.17;0.80;;;19.70;57.20;;;;;;5062377;28;20052;-35
2024/01/18 08:46:57;;;;;;;1.27;0.93;;;19.90;57.60;;;;;;5071874;28;20555;-33
2024/01/18 08:49:24;;;;;;;1.95;0.70;;;;;;;;;;5054182;28;20092;-31
2024/01/18 08:51:53;;;;;;;1.73;0.90;;;19.90;57.30;;;;;;5052035;28;20060;-36
2024/01/18 08:54:21;;;;;;;2.22;0.90;;;;;;;;;;5052126;28;20191;-37
2024/01/18 08:56:48;;;;;;;2.05;1.05;;;19.90;57.00;;;;;;5051952;28;20087;-35
2024/01/18 08:59:15;;;;;;;2.42;0.70;;;20.50;48.80;;;;;;5051864;28;20125;-34
2024/01/18 09:01:43;;;;;;;0.98;0.80;;;19.30;57.00;;;;;;5051643;28;20045;-34
2024/01/18 09:04:10;;;;;;;1.25;0.85;;;20.60;57.80;;;;;;5051726;28;20049;-36
2024/01/18 09:06:37;;;;;;;1.13;0.75;;;;;;;;;;5054609;28;20044;-32
2024/01/18 09:09:04;;;;;;;1.42;0.70;;;20.40;57.20;;;;;;5055925;28;20131;-34
2024/01/18 09:11:31;;;;;;;1.15;0.68;;;;;;;;;;5059296;28;20048;-34
2024/01/18 09:13:58;;;;;;;1.50;0.88;;;19.90;40.70;;;;;;5070078;28;20052;-36
2024/01/18 09:16:27;;;;;;;1.42;0.80;;;20.10;42.00;;;;;;5053807;28;20049;-35
2024/01/18 09:18:55;;;;;;;2.92;0.80;;;20.70;57.50;;;;;;5052277;28;20075;-34
2024/01/18 09:21:22;;;;;;;1.42;0.77;;;21.30;57.50;;;;;;5058333;28;20094;-38
2024/01/18 09:23:48;;;;;;;1.02;0.80;;;20.40;57.30;;;;;;5071955;28;20052;-35
2024/01/18 09:26:15;;;;;;;1.27;0.80;;;;;;;;;;5063120;28;20488;-34
2024/01/18 09:28:43;;;;;;;1.10;0.90;;;;;;;;;;5057304;28;20053;-34
2024/01/18 09:31:10;;;;;;;0.95;0.60;;;;;;;;;;5051438;28;20041;-32
2024/01/18 09:33:38;;;;;;;1.33;0.85;;;;;;;;;;5051722;28;20642;-35
2024/01/18 09:36:06;;;;;;;1.33;0.75;;;19.40;56.20;;;;;;5056120;28;20462;-37
2024/01/18 09:38:34;;;;;;;1.38;0.60;;;20.40;57.30;;;;;;5057280;28;20114;-36
2024/01/18 09:41:03;;;;;;;1.67;0.90;;;20.80;57.10;;;;;;5050962;28;20056;-35
2024/01/18 09:43:30;;;;;;;1.65;0.85;;;;;;;;;;5051573;28;20052;-32
2024/01/18 09:45:58;;;;;;;1.33;0.63;;;;;;;;;;5051219;28;20057;-34
2024/01/18 09:48:25;;;;;;;0.75;0.70;;;20.80;57.10;;;;;;5051538;28;20076;-36
2024/01/18 09:50:53;;;;;;;0.95;0.82;;;;;;;;;;5050890;28;20052;-32
2024/01/18 09:53:21;;;;;;;1.27;0.63;;;20.40;56.90;;;;;;5070041;28;20459;-37
2024/01/18 09:55:48;;;;;;;1.08;0.73;;;20.50;57.00;;;;;;5071495;28;20110;-37
2024/01/18 09:58:14;;;;;;;1.23;0.80;;;20.50;46.60;;;;;;5053105;28;20056;-34
2024/01/18 10:00:44;;;;;;;2.15;0.80;;;21.60;57.20;;;;;;5051485;28;20460;-28
2024/01/18 10:03:11;;;;;;;0.98;0.63;;;20.90;48.70;;;;;;5051218;28;20077;-29
2024/01/18 10:05:38;;;;;;;1.17;0.80;;;20.70;56.90;;;;;;5050159;28;20541;-28
2024/01/18 10:08:05;;;;;;;1.40;0.80;;;20.50;37.70;;;;;;5064860;28;20501;-33
2024/01/18 10:10:33;;;;;;;1.00;0.90;;;19.50;56.00;;;;;;5071319;28;20464;-28
2024/01/18 10:13:02;;;;;;;1.23;0.80;;;20.80;57.10;;;;;;5071255;28;20049;-28
2024/01/18 10:15:33;;;;;;;1.58;0.80;;;19.60;39.60;;;;;;5066260;28;20045;-34
2024/01/18 10:18:02;;;;;;;0.80;0.63;;;20.80;39.70;;;;;;5052656;28;20088;-34
2024/01/18 10:20:29;;;;;;;1.02;0.70;;;20.70;55.70;;;;;;5054288;28;20041;-29
2024/01/18 10:22:56;;;;;;;1.67;0.70;;;20.20;43.40;;;;;;5054853;28;20468;-28
2024/01/18 10:25:25;;;;;;;1.50;0.60;;;;;;;;;;5059862;28;20048;-33
2024/01/18 10:27:54;;;;;;;1.50;0.70;;;20.70;37.70;;;;;;5063060;28;20045;-28
2024/01/18 10:30:20;;;;;;;1.40;0.73;;;19.60;55.90;;;;;;5062030;28;21611;-28
2024/01/18 10:32:47;;;;;;;0.70;0.70;;;;;;;;;;5064775;28;20052;-34
2024/01/18 10:35:24;;;;;;;0.80;0.70;;;21.00;56.60;;;;;;5063781;28;20462;-37
2024/01/18 10:38:00;;;;;;;2.55;0.80;;;21.00;56.60;;;;;;5062112;28;20047;-38
2024/01/18 10:40:27;;;;;;;1.15;0.73;;;21.20;52.90;;;;;;5062405;28;20045;-35
2024/01/18 10:42:55;;;;;;;1.02;0.70;;;19.90;56.30;;;;;;5063719;28;20048;-36
2024/01/18 10:45:22;;;;;;;1.23;0.73;;;20.60;56.20;;;;;;5061797;28;20087;-34
2024/01/18 10:47:49;;;;;;;1.00;0.77;;;20.90;56.80;;;;;;5062872;28;20419;-37
2024/01/18 10:50:17;;;;;;;0.85;0.68;;;;;;;;;;5063141;28;20123;-36
2024/01/18 10:52:45;;;;;;;0.95;0.60;;;;;;;;;;5064702;28;20096;-32
2024/01/18 10:55:12;;;;;;;1.55;0.90;;;21.10;40.90;;;;;;5063581;28;20049;-31
2024/01/18 10:57:39;;;;;;;1.42;0.77;;;20.60;48.30;;;;;;5062342;28;20532;-28
2024/01/18 11:00:08;;;;;;;0.52;0.50;;;20.90;56.60;;;;;;5064272;28;20102;-28
2024/01/18 11:02:39;;;;;;;1.17;0.63;;;20.80;37.60;;;;;;5060075;28;20539;-28
2024/01/18 11:05:08;;;;;;;0.50;0.50;;;20.80;37.60;;;;;;5062309;28;20506;-32
2024/01/18 11:07:35;;;;;;;1.27;0.70;;;20.90;49.10;;;;;;5063126;28;20044;-36
2024/01/18 11:10:02;;;;;;;0.68;0.60;;;;;;;;;;5061971;28;20110;-34
2024/01/18 11:12:29;;;;;;;0.77;0.60;;;21.50;56.80;;;;;;5062334;28;20557;-36
2024/01/18 11:14:56;;;;;;;0.98;0.70;;;21.70;56.50;;;;;;5061158;28;20567;-39
2024/01/18 11:17:24;;;;;;;0.40;0.40;;;20.90;37.50;;;;;;5059326;28;20052;-31
2024/01/18 11:19:51;;;;;;;0.80;0.70;;;20.70;40.70;;;;;;5053455;28;20099;-30
2024/01/18 11:22:24;;;;;;;0.95;0.70;;;21.90;57.10;;;;;;5058520;28;20091;-29
2024/01/18 11:24:51;;;;;;;0.70;0.50;;;21.40;49.00;;;;;;5053263;28;20083;-29
2024/01/18 11:27:19;;;;;;;0.40;0.40;;;20.90;56.00;;;;;;5072911;28;20106;-28
2024/01/18 11:29:46;;;;;;;0.85;0.60;;;20.80;41.40;;;;;;5064558;28;20052;-29
2024/01/18 11:32:14;;;;;;;0.60;0.60;;;21.00;39.60;;;;;;5058789;28;20037;-31
2024/01/18 11:34:42;;;;;;;0.75;0.70;;;21.10;37.60;;;;;;5062681;28;20106;-28
2024/01/18 11:37:11;;;;;;;0.95;0.70;;;21.10;37.60;;;;;;5061014;28;20052;-30
2024/01/18 11:39:56;;;;;;;1.08;0.77;;;20.80;45.00;;;;;;5062070;28;20045;-29
2024/01/18 11:42:24;;;;;;;1.00;0.70;;;21.50;56.30;;;;;;5063046;28;20494;-28
2024/01/18 11:44:55;;;;;;;0.73;0.63;;;21.10;37.60;;;;;;5061496;28;20053;-32
2024/01/18 11:47:23;;;;;;;0.70;0.60;;;21.20;39.90;;;;;;5066265;28;20468;-28
2024/01/18 11:49:52;;;;;;;0.50;0.50;;;21.20;52.20;;;;;;5063138;28;20460;-30
2024/01/18 11:52:18;;;;;;;1.50;0.70;;;21.10;40.40;;;;;;5062236;28;20099;-28
2024/01/18 11:54:46;;;;;;;0.75;0.60;;;21.40;56.00;;;;;;5061941;28;20056;-29
2024/01/18 11:57:13;;;;;;;1.38;0.75;;;20.90;55.70;;;;;;5061335;28;20124;-28
2024/01/18 11:59:44;;;;;;;1.48;0.80;;;21.10;50.70;;;;;;5064482;28;20053;-28
2024/01/18 12:02:11;;;;;;;1.45;0.75;;;21.30;55.90;;;;;;5063001;28;20037;-29
2024/01/18 12:04:38;;;;;;;1.85;0.63;;;;;;;;;;5061546;28;20475;-33
2024/01/18 12:07:06;;;;;;;1.42;1.02;;;21.00;56.70;;;;;;5061669;28;20041;-28
2024/01/18 12:09:34;;;;;;;0.88;0.73;;;21.60;56.20;;;;;;5062944;28;20449;-28
2024/01/18 12:12:01;;;;;;;0.70;0.52;;;21.20;45.60;;;;;;5060435;28;20044;-29
2024/01/18 12:14:28;;;;;;;0.95;0.70;;;21.50;55.60;;;;;;5064245;28;20040;-28
2024/01/18 12:16:55;;;;;;;0.93;0.65;;;21.60;50.90;;;;;;5060741;28;20045;-30
2024/01/18 12:19:32;;;;;;;0.80;0.68;;;22.00;37.90;;;;;;5060629;28;20459;-28
2024/01/18 12:21:59;;;;;;;1.25;0.60;;;;;;;;;;5061142;28;20475;-32
2024/01/18 12:24:27;;;;;;;0.63;0.52;;;21.80;56.10;;;;;;5062997;28;20044;-29
2024/01/18 12:26:54;;;;;;;1.70;0.80;;;21.50;56.30;;;;;;5067692;28;20052;-29
2024/01/18 12:29:22;;;;;;;1.00;0.60;;;21.30;37.50;;;;;;5070820;28;20105;-32
2024/01/18 12:31:50;;;;;;;0.50;0.50;;;;;;;;;;5066152;28;20236;-29
2024/01/18 12:34:18;;;;;;;2.83;0.70;;;21.00;55.50;;;;;;5054322;28;20072;-28
2024/01/18 12:36:45;;;;;;;1.10;0.68;;;;;;;;;;5058338;28;20049;-35
2024/01/18 12:39:12;;;;;;;1.85;0.90;;;21.40;56.10;;;;;;5071150;28;20052;-29
2024/01/18 12:41:40;;;;;;;2.13;0.95;;;21.30;37.30;;;;;;5071098;28;20105;-32
2024/01/18 12:44:07;;;;;;;1.83;0.73;;;;;;;;;;5071234;28;20095;-33
2024/01/18 12:46:35;;;;;;;1.23;0.70;;;21.50;55.70;;;;;;5072163;28;20048;-28
2024/01/18 12:49:02;;;;;;;2.30;0.60;;;21.20;56.10;;;;;;5072032;28;20133;-28
2024/01/18 12:51:29;;;;;;;1.83;0.75;;;21.30;56.50;;;;;;5071932;28;20044;-29
2024/01/18 12:53:56;;;;;;;0.95;0.70;;;22.50;42.90;;;;;;5060046;28;20452;-29
2024/01/18 12:56:23;;;;;;;1.25;0.75;;;21.40;55.70;;;;;;5061849;28;20386;-28
2024/01/18 12:58:51;;;;;;;1.98;0.70;;;20.40;38.10;;;;;;5072224;28;20048;-31
2024/01/18 13:01:28;;;;;;;0.65;0.60;;;20.40;37.30;;;;;;5071849;28;20440;-31
2024/01/18 13:04:09;;;;;;;0.90;0.60;;;21.70;56.20;;;;;;5060315;28;20052;-28
2024/01/18 13:06:36;;;;;;;1.02;0.73;;;21.50;46.30;;;;;;5051683;28;20075;-29
2024/01/18 13:09:04;;;;;;;1.23;0.60;;;21.90;56.00;;;;;;5051682;28;20053;-28
2024/01/18 13:11:32;;;;;;;0.85;0.60;;;20.70;55.40;;;;;;5051427;28;20045;-29
2024/01/18 13:14:01;;;;;;;0.82;0.50;;;20.70;55.10;;;;;;5051799;28;20414;-28